sensor_id;sensor_type;location;lat;lon;timestamp;pressure;altitude;pressure_sealevel;temperature;humidity
19457;BME280;9867;48.094;11.478;2023-08-01T00:01:25;94461.41;;;23.91;85.13
19457;BME280;9867;48.094;11.478;2023-08-01T00:03:53;94444.41;;;24.02;83.94
19457;BME280;9867;48.094;11.478;2023-08-01T00:06:21;94450.00;;;24.09;84.53
19457;BME280;9867;48.094;11.478;2023-08-01T00:08:58;94431.13;;;23.98;82.52
19457;BME280;9867;48.094;11.478;2023-08-01T00:11:30;94436.47;;;24.15;82.07
19457;BME280;9867;48.094;11.478;2023-08-01T00:14:01;94435.28;;;23.99;83.80
19457;BME280;9867;48.094;11.478;2023-08-01T00:16:29;94429.28;;;23.99;81.99
19457;BME280;9867;48.094;11.478;2023-08-01T00:18:59;94427.13;;;24.01;81.13
19457;BME280;9867;48.094;11.478;2023-08-01T00:21:26;94422.13;;;23.91;81.77
19457;BME280;9867;48.094;11.478;2023-08-01T00:23:57;94421.03;;;23.92;82.01
19457;BME280;9867;48.094;11.478;2023-08-01T00:26:25;94413.25;;;24.00;81.82
19457;BME280;9867;48.094;11.478;2023-08-01T00:28:54;94410.63;;;24.00;83.10
19457;BME280;9867;48.094;11.478;2023-08-01T00:31:22;94407.53;;;24.21;81.88
19457;BME280;9867;48.094;11.478;2023-08-01T00:33:50;94400.25;;;24.18;81.31
19457;BME280;9867;48.094;11.478;2023-08-01T00:36:18;94398.19;;;24.06;82.69
19457;BME280;9867;48.094;11.478;2023-08-01T00:38:46;94390.56;;;23.96;84.65
19457;BME280;9867;48.094;11.478;2023-08-01T00:41:18;94387.81;;;24.01;84.70
19457;BME280;9867;48.094;11.478;2023-08-01T00:43:46;94378.72;;;23.98;86.11
19457;BME280;9867;48.094;11.478;2023-08-01T00:46:16;94371.84;;;23.89;86.44
19457;BME280;9867;48.094;11.478;2023-08-01T00:48:44;94369.78;;;23.77;88.16
19457;BME280;9867;48.094;11.478;2023-08-01T00:51:15;94359.66;;;23.84;88.69
19457;BME280;9867;48.094;11.478;2023-08-01T00:53:45;94360.00;;;23.91;88.31
19457;BME280;9867;48.094;11.478;2023-08-01T00:56:13;94354.59;;;23.65;90.48
19457;BME280;9867;48.094;11.478;2023-08-01T00:58:41;94352.25;;;23.86;88.94
19457;BME280;9867;48.094;11.478;2023-08-01T01:01:09;94352.41;;;23.81;91.11
19457;BME280;9867;48.094;11.478;2023-08-01T01:03:39;94346.28;;;23.50;93.21
19457;BME280;9867;48.094;11.478;2023-08-01T01:06:12;94349.03;;;23.67;92.90
19457;BME280;9867;48.094;11.478;2023-08-01T01:08:42;94338.13;;;23.51;94.64
19457;BME280;9867;48.094;11.478;2023-08-01T01:11:11;94343.94;;;23.62;94.37
19457;BME280;9867;48.094;11.478;2023-08-01T01:13:39;94337.94;;;23.61;94.05
19457;BME280;9867;48.094;11.478;2023-08-01T01:16:08;94330.72;;;23.67;94.88
19457;BME280;9867;48.094;11.478;2023-08-01T01:18:36;94324.06;;;23.61;98.03
19457;BME280;9867;48.094;11.478;2023-08-01T01:21:05;94316.91;;;23.53;99.13
19457;BME280;9867;48.094;11.478;2023-08-01T01:23:52;94315.47;;;23.69;98.29
19457;BME280;9867;48.094;11.478;2023-08-01T01:26:20;94310.97;;;23.47;98.33
19457;BME280;9867;48.094;11.478;2023-08-01T01:28:49;94321.00;;;23.67;97.74
19457;BME280;9867;48.094;11.478;2023-08-01T01:31:18;94316.84;;;23.66;97.64
19457;BME280;9867;48.094;11.478;2023-08-01T01:33:47;94324.19;;;23.78;94.30
19457;BME280;9867;48.094;11.478;2023-08-01T01:36:17;94319.66;;;23.70;94.74
19457;BME280;9867;48.094;11.478;2023-08-01T01:38:45;94315.59;;;23.64;95.44
19457;BME280;9867;48.094;11.478;2023-08-01T01:41:13;94320.13;;;23.72;95.41
19457;BME280;9867;48.094;11.478;2023-08-01T01:43:42;94320.31;;;23.75;94.78
19457;BME280;9867;48.094;11.478;2023-08-01T01:46:11;94300.94;;;23.85;93.03
19457;BME280;9867;48.094;11.478;2023-08-01T01:48:39;94300.03;;;23.90;93.74
19457;BME280;9867;48.094;11.478;2023-08-01T01:51:08;94297.50;;;23.76;94.28
19457;BME280;9867;48.094;11.478;2023-08-01T01:53:38;94301.56;;;23.91;93.07
19457;BME280;9867;48.094;11.478;2023-08-01T01:56:07;94291.97;;;23.77;96.24
19457;BME280;9867;48.094;11.478;2023-08-01T01:58:35;94272.84;;;23.77;99.18
19457;BME280;9867;48.094;11.478;2023-08-01T02:01:03;94235.66;;;23.66;100.00
19457;BME280;9867;48.094;11.478;2023-08-01T02:03:31;94269.72;;;23.97;100.00
19457;BME280;9867;48.094;11.478;2023-08-01T02:05:59;94254.28;;;23.96;99.45
19457;BME280;9867;48.094;11.478;2023-08-01T02:08:30;94262.16;;;23.96;99.21
19457;BME280;9867;48.094;11.478;2023-08-01T02:11:04;94254.91;;;23.93;99.86
19457;BME280;9867;48.094;11.478;2023-08-01T02:13:32;94257.69;;;23.96;100.00
19457;BME280;9867;48.094;11.478;2023-08-01T02:16:01;94243.56;;;24.06;99.93
19457;BME280;9867;48.094;11.478;2023-08-01T02:18:29;94247.44;;;24.17;98.67
19457;BME280;9867;48.094;11.478;2023-08-01T02:21:06;94237.78;;;24.26;99.65
19457;BME280;9867;48.094;11.478;2023-08-01T02:23:34;94234.94;;;24.14;100.00
19457;BME280;9867;48.094;11.478;2023-08-01T02:26:05;94232.00;;;24.15;99.47
19457;BME280;9867;48.094;11.478;2023-08-01T02:28:35;94221.63;;;24.33;98.21
19457;BME280;9867;48.094;11.478;2023-08-01T02:31:03;94232.47;;;24.18;97.33
19457;BME280;9867;48.094;11.478;2023-08-01T02:33:31;94231.38;;;24.10;98.94
19457;BME280;9867;48.094;11.478;2023-08-01T02:36:00;94237.19;;;24.29;97.68
19457;BME280;9867;48.094;11.478;2023-08-01T02:38:28;94231.78;;;24.34;97.39
19457;BME280;9867;48.094;11.478;2023-08-01T02:40:56;94231.81;;;24.43;96.84
19457;BME280;9867;48.094;11.478;2023-08-01T02:43:26;94229.06;;;24.48;98.07
19457;BME280;9867;48.094;11.478;2023-08-01T02:45:54;94229.69;;;24.54;97.89
19457;BME280;9867;48.094;11.478;2023-08-01T02:48:22;94217.78;;;24.47;99.90
19457;BME280;9867;48.094;11.478;2023-08-01T02:50:50;94223.31;;;24.37;99.07
19457;BME280;9867;48.094;11.478;2023-08-01T02:53:18;94236.41;;;24.37;99.79
19457;BME280;9867;48.094;11.478;2023-08-01T02:55:46;94240.72;;;24.25;100.00
19457;BME280;9867;48.094;11.478;2023-08-01T02:58:14;94232.31;;;24.14;100.00
19457;BME280;9867;48.094;11.478;2023-08-01T03:00:44;94234.16;;;24.13;100.00
19457;BME280;9867;48.094;11.478;2023-08-01T03:03:14;94249.47;;;24.20;100.00
19457;BME280;9867;48.094;11.478;2023-08-01T03:05:42;94257.28;;;24.11;100.00
19457;BME280;9867;48.094;11.478;2023-08-01T03:08:10;94260.78;;;23.98;100.00
19457;BME280;9867;48.094;11.478;2023-08-01T03:10:39;94248.69;;;23.89;100.00
19457;BME280;9867;48.094;11.478;2023-08-01T03:13:07;94239.34;;;23.96;100.00
19457;BME280;9867;48.094;11.478;2023-08-01T03:15:36;94226.41;;;24.00;100.00
19457;BME280;9867;48.094;11.478;2023-08-01T03:18:06;94226.28;;;24.05;100.00
19457;BME280;9867;48.094;11.478;2023-08-01T03:20:34;94240.59;;;23.68;100.00
19457;BME280;9867;48.094;11.478;2023-08-01T03:23:02;94240.16;;;23.74;100.00
19457;BME280;9867;48.094;11.478;2023-08-01T03:25:31;94239.41;;;23.52;100.00
19457;BME280;9867;48.094;11.478;2023-08-01T03:27:59;94246.97;;;23.08;100.00
19457;BME280;9867;48.094;11.478;2023-08-01T03:30:27;94242.13;;;23.02;100.00
19457;BME280;9867;48.094;11.478;2023-08-01T03:32:55;94253.50;;;23.20;100.00
19457;BME280;9867;48.094;11.478;2023-08-01T03:35:25;94249.22;;;23.24;100.00
19457;BME280;9867;48.094;11.478;2023-08-01T03:37:53;94253.00;;;23.18;100.00
19457;BME280;9867;48.094;11.478;2023-08-01T03:40:21;94240.56;;;23.37;100.00
19457;BME280;9867;48.094;11.478;2023-08-01T03:42:49;94231.00;;;22.96;100.00
19457;BME280;9867;48.094;11.478;2023-08-01T03:45:18;94248.81;;;23.08;100.00
19457;BME280;9867;48.094;11.478;2023-08-01T03:47:46;94256.56;;;23.35;100.00
19457;BME280;9867;48.094;11.478;2023-08-01T03:50:14;94255.03;;;23.43;100.00
19457;BME280;9867;48.094;11.478;2023-08-01T03:52:45;94243.19;;;23.45;100.00
19457;BME280;9867;48.094;11.478;2023-08-01T03:55:13;94267.84;;;23.44;100.00
19457;BME280;9867;48.094;11.478;2023-08-01T03:57:41;94262.00;;;23.47;100.00
19457;BME280;9867;48.094;11.478;2023-08-01T04:00:10;94265.41;;;23.48;100.00
19457;BME280;9867;48.094;11.478;2023-08-01T04:02:40;94270.63;;;23.62;100.00
19457;BME280;9867;48.094;11.478;2023-08-01T04:05:13;94263.09;;;23.69;100.00
19457;BME280;9867;48.094;11.478;2023-08-01T04:07:41;94265.22;;;23.67;100.00
19457;BME280;9867;48.094;11.478;2023-08-01T04:10:11;94272.09;;;23.54;100.00
19457;BME280;9867;48.094;11.478;2023-08-01T04:12:40;94261.47;;;23.15;100.00
19457;BME280;9867;48.094;11.478;2023-08-01T04:15:09;94272.72;;;22.79;100.00
19457;BME280;9867;48.094;11.478;2023-08-01T04:17:37;94265.75;;;22.61;100.00
19457;BME280;9867;48.094;11.478;2023-08-01T04:20:06;94272.28;;;22.72;100.00
19457;BME280;9867;48.094;11.478;2023-08-01T04:22:35;94262.03;;;22.89;100.00
19457;BME280;9867;48.094;11.478;2023-08-01T04:25:03;94266.63;;;22.56;100.00
19457;BME280;9867;48.094;11.478;2023-08-01T04:27:32;94269.81;;;22.81;100.00
19457;BME280;9867;48.094;11.478;2023-08-01T04:30:01;94276.66;;;22.76;100.00
19457;BME280;9867;48.094;11.478;2023-08-01T04:32:29;94284.34;;;22.59;100.00
19457;BME280;9867;48.094;11.478;2023-08-01T04:34:57;94270.94;;;22.74;100.00
19457;BME280;9867;48.094;11.478;2023-08-01T04:37:25;94280.47;;;22.43;100.00
19457;BME280;9867;48.094;11.478;2023-08-01T04:39:53;94273.28;;;22.62;100.00
19457;BME280;9867;48.094;11.478;2023-08-01T04:42:21;94250.31;;;22.73;100.00
19457;BME280;9867;48.094;11.478;2023-08-01T04:44:50;94254.91;;;22.67;100.00
19457;BME280;9867;48.094;11.478;2023-08-01T04:47:18;94264.19;;;22.60;100.00
19457;BME280;9867;48.094;11.478;2023-08-01T04:49:47;94255.03;;;22.98;100.00
19457;BME280;9867;48.094;11.478;2023-08-01T04:52:14;94263.47;;;22.95;100.00
19457;BME280;9867;48.094;11.478;2023-08-01T04:54:42;94263.88;;;22.89;100.00
19457;BME280;9867;48.094;11.478;2023-08-01T04:57:10;94254.34;;;23.06;100.00
19457;BME280;9867;48.094;11.478;2023-08-01T04:59:38;94242.34;;;22.92;100.00
19457;BME280;9867;48.094;11.478;2023-08-01T05:02:08;94255.38;;;22.83;100.00
19457;BME280;9867;48.094;11.478;2023-08-01T05:04:36;94247.31;;;22.79;100.00
19457;BME280;9867;48.094;11.478;2023-08-01T05:07:05;94253.78;;;22.96;100.00
19457;BME280;9867;48.094;11.478;2023-08-01T05:09:33;94244.72;;;22.79;100.00
19457;BME280;9867;48.094;11.478;2023-08-01T05:12:01;94244.50;;;22.76;100.00
19457;BME280;9867;48.094;11.478;2023-08-01T05:14:29;94238.41;;;22.81;100.00
19457;BME280;9867;48.094;11.478;2023-08-01T05:16:57;94230.63;;;22.75;100.00
19457;BME280;9867;48.094;11.478;2023-08-01T05:19:27;94223.66;;;22.07;100.00
19457;BME280;9867;48.094;11.478;2023-08-01T05:21:55;94225.41;;;22.39;100.00
19457;BME280;9867;48.094;11.478;2023-08-01T05:24:23;94214.72;;;22.50;100.00
19457;BME280;9867;48.094;11.478;2023-08-01T05:26:51;94206.28;;;22.66;100.00
19457;BME280;9867;48.094;11.478;2023-08-01T05:29:19;94205.97;;;22.68;100.00
19457;BME280;9867;48.094;11.478;2023-08-01T05:31:47;94215.06;;;22.70;100.00
19457;BME280;9867;48.094;11.478;2023-08-01T05:34:15;94224.50;;;22.44;100.00
19457;BME280;9867;48.094;11.478;2023-08-01T05:36:47;94228.13;;;22.07;100.00
19457;BME280;9867;48.094;11.478;2023-08-01T05:39:15;94230.72;;;22.34;100.00
19457;BME280;9867;48.094;11.478;2023-08-01T05:41:43;94232.94;;;22.27;100.00
19457;BME280;9867;48.094;11.478;2023-08-01T05:44:11;94241.94;;;22.07;100.00
19457;BME280;9867;48.094;11.478;2023-08-01T05:46:39;94243.41;;;22.27;100.00
19457;BME280;9867;48.094;11.478;2023-08-01T05:49:07;94233.88;;;22.45;100.00
19457;BME280;9867;48.094;11.478;2023-08-01T05:51:35;94228.50;;;22.28;100.00
19457;BME280;9867;48.094;11.478;2023-08-01T05:54:05;94239.63;;;22.33;100.00
19457;BME280;9867;48.094;11.478;2023-08-01T05:56:33;94221.31;;;22.33;100.00
19457;BME280;9867;48.094;11.478;2023-08-01T05:59:01;94234.00;;;22.40;100.00
19457;BME280;9867;48.094;11.478;2023-08-01T06:01:30;94234.50;;;22.42;100.00
19457;BME280;9867;48.094;11.478;2023-08-01T06:03:59;94229.91;;;22.61;100.00
19457;BME280;9867;48.094;11.478;2023-08-01T06:06:29;94232.81;;;22.60;100.00
19457;BME280;9867;48.094;11.478;2023-08-01T06:08:57;94228.97;;;22.30;100.00
19457;BME280;9867;48.094;11.478;2023-08-01T06:11:26;94228.66;;;22.59;100.00
19457;BME280;9867;48.094;11.478;2023-08-01T06:13:55;94220.81;;;22.59;100.00
19457;BME280;9867;48.094;11.478;2023-08-01T06:16:23;94220.63;;;22.55;100.00
19457;BME280;9867;48.094;11.478;2023-08-01T06:18:53;94227.72;;;22.41;100.00
19457;BME280;9867;48.094;11.478;2023-08-01T06:21:21;94214.28;;;22.70;100.00
19457;BME280;9867;48.094;11.478;2023-08-01T06:23:49;94207.03;;;22.81;100.00
19457;BME280;9867;48.094;11.478;2023-08-01T06:26:18;94208.22;;;22.97;100.00
19457;BME280;9867;48.094;11.478;2023-08-01T06:28:47;94203.53;;;22.71;100.00
19457;BME280;9867;48.094;11.478;2023-08-01T06:31:18;94188.25;;;22.78;100.00
19457;BME280;9867;48.094;11.478;2023-08-01T06:33:48;94184.75;;;22.83;100.00
19457;BME280;9867;48.094;11.478;2023-08-01T06:36:16;94194.56;;;22.64;100.00
19457;BME280;9867;48.094;11.478;2023-08-01T06:38:45;94176.50;;;22.90;100.00
19457;BME280;9867;48.094;11.478;2023-08-01T06:41:13;94173.41;;;22.88;100.00
19457;BME280;9867;48.094;11.478;2023-08-01T06:43:42;94160.13;;;23.06;100.00
19457;BME280;9867;48.094;11.478;2023-08-01T06:46:11;94162.75;;;23.06;100.00
19457;BME280;9867;48.094;11.478;2023-08-01T06:48:39;94159.38;;;22.84;100.00
19457;BME280;9867;48.094;11.478;2023-08-01T06:51:07;94153.75;;;22.99;100.00
19457;BME280;9867;48.094;11.478;2023-08-01T06:53:35;94142.41;;;22.81;100.00
19457;BME280;9867;48.094;11.478;2023-08-01T06:56:03;94143.31;;;22.99;100.00
19457;BME280;9867;48.094;11.478;2023-08-01T06:58:31;94136.41;;;22.81;100.00
19457;BME280;9867;48.094;11.478;2023-08-01T07:00:59;94144.28;;;22.67;100.00
19457;BME280;9867;48.094;11.478;2023-08-01T07:03:28;94140.94;;;22.75;100.00
19457;BME280;9867;48.094;11.478;2023-08-01T07:05:57;94116.84;;;23.00;100.00
19457;BME280;9867;48.094;11.478;2023-08-01T07:08:24;94108.28;;;23.08;100.00
19457;BME280;9867;48.094;11.478;2023-08-01T07:10:52;94119.16;;;23.02;100.00
19457;BME280;9867;48.094;11.478;2023-08-01T07:13:20;94116.44;;;22.85;100.00
19457;BME280;9867;48.094;11.478;2023-08-01T07:15:49;94102.59;;;23.15;100.00
19457;BME280;9867;48.094;11.478;2023-08-01T07:18:17;94106.22;;;23.28;100.00
19457;BME280;9867;48.094;11.478;2023-08-01T07:20:46;94104.13;;;23.16;100.00
19457;BME280;9867;48.094;11.478;2023-08-01T07:23:14;94100.72;;;23.07;99.19
19457;BME280;9867;48.094;11.478;2023-08-01T07:25:42;94096.56;;;23.06;100.00
19457;BME280;9867;48.094;11.478;2023-08-01T07:28:10;94101.69;;;23.20;98.55
19457;BME280;9867;48.094;11.478;2023-08-01T07:30:38;94101.75;;;23.28;98.52
19457;BME280;9867;48.094;11.478;2023-08-01T07:33:06;94107.53;;;23.17;97.38
19457;BME280;9867;48.094;11.478;2023-08-01T07:35:34;94120.59;;;22.86;100.00
19457;BME280;9867;48.094;11.478;2023-08-01T07:38:03;94110.63;;;22.88;100.00
19457;BME280;9867;48.094;11.478;2023-08-01T07:40:31;94082.28;;;23.12;99.72
19457;BME280;9867;48.094;11.478;2023-08-01T07:42:59;94057.19;;;23.11;95.18
19457;BME280;9867;48.094;11.478;2023-08-01T07:45:27;94066.88;;;23.50;93.00
19457;BME280;9867;48.094;11.478;2023-08-01T07:47:55;94065.75;;;23.42;91.90
19457;BME280;9867;48.094;11.478;2023-08-01T07:50:23;94070.88;;;23.47;92.21
19457;BME280;9867;48.094;11.478;2023-08-01T07:52:51;94070.47;;;23.54;93.47
19457;BME280;9867;48.094;11.478;2023-08-01T07:55:21;94069.81;;;23.18;100.00
19457;BME280;9867;48.094;11.478;2023-08-01T07:57:49;94083.38;;;23.20;100.00
19457;BME280;9867;48.094;11.478;2023-08-01T08:00:17;94074.22;;;23.39;100.00
19457;BME280;9867;48.094;11.478;2023-08-01T08:02:45;94076.84;;;23.39;100.00
19457;BME280;9867;48.094;11.478;2023-08-01T08:05:14;94076.34;;;22.98;100.00
19457;BME280;9867;48.094;11.478;2023-08-01T08:07:42;94053.22;;;23.22;100.00
19457;BME280;9867;48.094;11.478;2023-08-01T08:10:10;94043.88;;;23.30;100.00
19457;BME280;9867;48.094;11.478;2023-08-01T08:12:39;94022.09;;;23.12;100.00
19457;BME280;9867;48.094;11.478;2023-08-01T08:15:08;94004.25;;;23.71;100.00
19457;BME280;9867;48.094;11.478;2023-08-01T08:17:36;94025.50;;;23.52;100.00
19457;BME280;9867;48.094;11.478;2023-08-01T08:20:04;94047.41;;;23.73;100.00
19457;BME280;9867;48.094;11.478;2023-08-01T08:22:32;94061.81;;;24.36;100.00
19457;BME280;9867;48.094;11.478;2023-08-01T08:25:00;94081.19;;;24.09;100.00
19457;BME280;9867;48.094;11.478;2023-08-01T08:27:28;94077.81;;;24.87;100.00
19457;BME280;9867;48.094;11.478;2023-08-01T08:29:58;94085.06;;;25.07;100.00
19457;BME280;9867;48.094;11.478;2023-08-01T08:32:26;94089.25;;;24.91;98.58
19457;BME280;9867;48.094;11.478;2023-08-01T08:34:54;94071.09;;;24.51;99.69
19457;BME280;9867;48.094;11.478;2023-08-01T08:37:22;94081.53;;;24.94;98.09
19457;BME280;9867;48.094;11.478;2023-08-01T08:39:50;94068.78;;;25.31;94.44
19457;BME280;9867;48.094;11.478;2023-08-01T08:42:17;94081.19;;;25.04;94.72
19457;BME280;9867;48.094;11.478;2023-08-01T08:44:48;94067.72;;;25.23;90.88
19457;BME280;9867;48.094;11.478;2023-08-01T08:47:19;94069.34;;;24.81;95.71
19457;BME280;9867;48.094;11.478;2023-08-01T08:49:55;94090.81;;;24.74;93.99
19457;BME280;9867;48.094;11.478;2023-08-01T08:52:24;94113.97;;;24.64;97.23
19457;BME280;9867;48.094;11.478;2023-08-01T08:54:52;94097.78;;;24.53;94.70
19457;BME280;9867;48.094;11.478;2023-08-01T08:57:20;94087.69;;;25.07;92.20
19457;BME280;9867;48.094;11.478;2023-08-01T08:59:49;94108.09;;;24.58;92.80
19457;BME280;9867;48.094;11.478;2023-08-01T09:02:19;94111.03;;;24.31;97.99
19457;BME280;9867;48.094;11.478;2023-08-01T09:04:48;94114.59;;;24.43;98.69
19457;BME280;9867;48.094;11.478;2023-08-01T09:07:18;94093.13;;;24.59;98.46
19457;BME280;9867;48.094;11.478;2023-08-01T09:09:47;94098.50;;;24.19;100.00
19457;BME280;9867;48.094;11.478;2023-08-01T09:12:15;94096.94;;;24.01;100.00
19457;BME280;9867;48.094;11.478;2023-08-01T09:14:43;94091.75;;;24.44;99.39
19457;BME280;9867;48.094;11.478;2023-08-01T09:17:14;94066.91;;;24.76;97.67
19457;BME280;9867;48.094;11.478;2023-08-01T09:19:44;94071.81;;;25.03;94.16
19457;BME280;9867;48.094;11.478;2023-08-01T09:22:14;94094.31;;;25.13;91.43
19457;BME280;9867;48.094;11.478;2023-08-01T09:24:50;94109.03;;;24.54;95.31
19457;BME280;9867;48.094;11.478;2023-08-01T09:27:20;94106.81;;;24.21;99.58
19457;BME280;9867;48.094;11.478;2023-08-01T09:29:49;94107.66;;;24.56;99.44
19457;BME280;9867;48.094;11.478;2023-08-01T09:32:17;94130.25;;;24.18;100.00
19457;BME280;9867;48.094;11.478;2023-08-01T09:34:47;94141.50;;;24.18;100.00
19457;BME280;9867;48.094;11.478;2023-08-01T09:37:15;94149.78;;;23.86;100.00
19457;BME280;9867;48.094;11.478;2023-08-01T09:39:43;94127.84;;;23.73;100.00
19457;BME280;9867;48.094;11.478;2023-08-01T09:42:13;94141.50;;;23.39;100.00
19457;BME280;9867;48.094;11.478;2023-08-01T09:44:45;94147.19;;;24.03;100.00
19457;BME280;9867;48.094;11.478;2023-08-01T09:47:14;94139.72;;;24.36;100.00
19457;BME280;9867;48.094;11.478;2023-08-01T09:49:49;94162.50;;;23.70;100.00
19457;BME280;9867;48.094;11.478;2023-08-01T09:52:26;94147.06;;;23.68;95.46
19457;BME280;9867;48.094;11.478;2023-08-01T09:54:54;94155.59;;;23.21;99.74
19457;BME280;9867;48.094;11.478;2023-08-01T09:57:22;94152.78;;;23.70;100.00
19457;BME280;9867;48.094;11.478;2023-08-01T09:59:55;94153.31;;;23.90;94.94
19457;BME280;9867;48.094;11.478;2023-08-01T10:02:24;94205.13;;;23.17;99.18
19457;BME280;9867;48.094;11.478;2023-08-01T10:04:55;94179.53;;;23.05;100.00
19457;BME280;9867;48.094;11.478;2023-08-01T10:07:26;94167.63;;;22.99;100.00
19457;BME280;9867;48.094;11.478;2023-08-01T10:09:58;94165.88;;;23.17;100.00
19457;BME280;9867;48.094;11.478;2023-08-01T10:12:27;94179.19;;;23.52;100.00
19457;BME280;9867;48.094;11.478;2023-08-01T10:14:55;94173.56;;;22.91;100.00
19457;BME280;9867;48.094;11.478;2023-08-01T10:17:25;94188.72;;;22.81;100.00
19457;BME280;9867;48.094;11.478;2023-08-01T10:19:55;94177.00;;;22.78;100.00
19457;BME280;9867;48.094;11.478;2023-08-01T10:22:24;94192.47;;;23.55;100.00
19457;BME280;9867;48.094;11.478;2023-08-01T10:24:53;94199.28;;;23.11;100.00
19457;BME280;9867;48.094;11.478;2023-08-01T10:27:22;94180.69;;;23.22;100.00
19457;BME280;9867;48.094;11.478;2023-08-01T10:29:57;94170.00;;;23.40;100.00
19457;BME280;9867;48.094;11.478;2023-08-01T10:32:32;94186.09;;;22.81;100.00
19457;BME280;9867;48.094;11.478;2023-08-01T10:35:02;94155.91;;;22.97;100.00
19457;BME280;9867;48.094;11.478;2023-08-01T10:37:49;94170.22;;;23.22;100.00
19457;BME280;9867;48.094;11.478;2023-08-01T10:40:17;94175.94;;;23.01;100.00
19457;BME280;9867;48.094;11.478;2023-08-01T10:42:45;94156.34;;;22.76;100.00
19457;BME280;9867;48.094;11.478;2023-08-01T10:45:21;94136.78;;;22.52;100.00
19457;BME280;9867;48.094;11.478;2023-08-01T10:47:49;94151.72;;;22.37;100.00
19457;BME280;9867;48.094;11.478;2023-08-01T10:50:19;94141.28;;;22.24;100.00
19457;BME280;9867;48.094;11.478;2023-08-01T10:52:47;94145.97;;;22.49;100.00
19457;BME280;9867;48.094;11.478;2023-08-01T10:55:15;94134.56;;;22.45;100.00
19457;BME280;9867;48.094;11.478;2023-08-01T10:57:47;94197.31;;;22.31;100.00
19457;BME280;9867;48.094;11.478;2023-08-01T11:00:16;94148.56;;;22.63;100.00
19457;BME280;9867;48.094;11.478;2023-08-01T11:02:49;94152.75;;;22.50;100.00
19457;BME280;9867;48.094;11.478;2023-08-01T11:05:20;94140.97;;;22.39;100.00
19457;BME280;9867;48.094;11.478;2023-08-01T11:07:54;94138.81;;;21.91;100.00
19457;BME280;9867;48.094;11.478;2023-08-01T11:10:25;94141.03;;;22.11;100.00
19457;BME280;9867;48.094;11.478;2023-08-01T11:12:53;94133.59;;;22.05;100.00
19457;BME280;9867;48.094;11.478;2023-08-01T11:15:21;94129.78;;;21.97;100.00
19457;BME280;9867;48.094;11.478;2023-08-01T11:17:51;94136.19;;;22.05;100.00
19457;BME280;9867;48.094;11.478;2023-08-01T11:20:23;94136.31;;;22.72;100.00
19457;BME280;9867;48.094;11.478;2023-08-01T11:22:54;94133.13;;;22.39;100.00
19457;BME280;9867;48.094;11.478;2023-08-01T11:25:36;94130.09;;;21.96;100.00
19457;BME280;9867;48.094;11.478;2023-08-01T11:28:09;94145.91;;;22.40;100.00
19457;BME280;9867;48.094;11.478;2023-08-01T11:30:37;94141.59;;;21.81;100.00
19457;BME280;9867;48.094;11.478;2023-08-01T11:33:15;94181.44;;;21.59;100.00
19457;BME280;9867;48.094;11.478;2023-08-01T11:35:45;94159.13;;;21.67;100.00
19457;BME280;9867;48.094;11.478;2023-08-01T11:38:13;94182.63;;;21.94;100.00
19457;BME280;9867;48.094;11.478;2023-08-01T11:40:42;94173.41;;;21.56;100.00
19457;BME280;9867;48.094;11.478;2023-08-01T11:43:10;94167.53;;;21.64;100.00
19457;BME280;9867;48.094;11.478;2023-08-01T11:45:48;94168.19;;;21.97;100.00
19457;BME280;9867;48.094;11.478;2023-08-01T11:48:16;94164.34;;;22.08;100.00
19457;BME280;9867;48.094;11.478;2023-08-01T11:50:46;94168.88;;;21.61;100.00
19457;BME280;9867;48.094;11.478;2023-08-01T11:53:19;94158.31;;;22.21;100.00
19457;BME280;9867;48.094;11.478;2023-08-01T11:55:47;94165.34;;;22.48;100.00
19457;BME280;9867;48.094;11.478;2023-08-01T11:58:15;94156.03;;;22.20;100.00
19457;BME280;9867;48.094;11.478;2023-08-01T12:00:43;94164.81;;;22.24;100.00
19457;BME280;9867;48.094;11.478;2023-08-01T12:03:11;94181.47;;;23.00;100.00
19457;BME280;9867;48.094;11.478;2023-08-01T12:05:40;94165.75;;;22.41;100.00
19457;BME280;9867;48.094;11.478;2023-08-01T12:08:14;94176.31;;;22.23;100.00
19457;BME280;9867;48.094;11.478;2023-08-01T12:10:44;94163.94;;;23.00;100.00
19457;BME280;9867;48.094;11.478;2023-08-01T12:13:22;94177.75;;;23.45;100.00
19457;BME280;9867;48.094;11.478;2023-08-01T12:15:51;94187.47;;;23.23;100.00
19457;BME280;9867;48.094;11.478;2023-08-01T12:18:20;94191.72;;;23.41;100.00
19457;BME280;9867;48.094;11.478;2023-08-01T12:21:09;94190.69;;;23.20;100.00
19457;BME280;9867;48.094;11.478;2023-08-01T12:23:39;94233.16;;;23.17;100.00
19457;BME280;9867;48.094;11.478;2023-08-01T12:26:08;94196.94;;;23.32;100.00
19457;BME280;9867;48.094;11.478;2023-08-01T12:28:36;94206.00;;;23.79;100.00
19457;BME280;9867;48.094;11.478;2023-08-01T12:31:04;94204.53;;;23.20;100.00
19457;BME280;9867;48.094;11.478;2023-08-01T12:33:33;94210.16;;;23.05;100.00
19457;BME280;9867;48.094;11.478;2023-08-01T12:36:02;94188.38;;;23.18;100.00
19457;BME280;9867;48.094;11.478;2023-08-01T12:38:29;94201.59;;;23.66;100.00
19457;BME280;9867;48.094;11.478;2023-08-01T12:41:00;94186.03;;;23.39;100.00
19457;BME280;9867;48.094;11.478;2023-08-01T12:43:29;94211.41;;;23.92;100.00
19457;BME280;9867;48.094;11.478;2023-08-01T12:45:57;94188.66;;;24.09;100.00
19457;BME280;9867;48.094;11.478;2023-08-01T12:48:25;94189.84;;;23.33;100.00
19457;BME280;9867;48.094;11.478;2023-08-01T12:50:53;94191.91;;;23.67;100.00
19457;BME280;9867;48.094;11.478;2023-08-01T12:53:22;94190.16;;;23.93;100.00
19457;BME280;9867;48.094;11.478;2023-08-01T12:55:54;94183.19;;;23.89;100.00
19457;BME280;9867;48.094;11.478;2023-08-01T12:58:24;94189.31;;;24.15;100.00
19457;BME280;9867;48.094;11.478;2023-08-01T13:00:52;94191.28;;;24.09;100.00
19457;BME280;9867;48.094;11.478;2023-08-01T13:03:20;94173.56;;;23.36;100.00